createdAt,value
2023-08-19T00:01:32.177Z,95600.91
2023-08-19T00:04:01.135Z,95600.25
2023-08-19T00:06:33.260Z,95598.53
2023-08-19T00:09:04.670Z,95597.84
2023-08-19T00:11:33.562Z,95597.84
2023-08-19T00:14:02.318Z,95603.50
2023-08-19T00:16:30.306Z,95594.78
2023-08-19T00:18:58.849Z,95589.69
2023-08-19T00:21:26.970Z,95593.09
2023-08-19T00:23:55.917Z,95590.63
2023-08-19T00:26:23.875Z,95587.91
2023-08-19T00:28:52.163Z,95585.28
2023-08-19T00:31:20.554Z,95584.75
2023-08-19T00:33:49.015Z,95571.66
2023-08-19T00:36:16.880Z,95571.47
2023-08-19T00:38:47.168Z,95567.50
2023-08-19T00:41:15.990Z,95570.75
2023-08-19T00:43:47.227Z,95568.44
2023-08-19T00:46:18.389Z,95577.16
2023-08-19T00:48:47.537Z,95572.72
2023-08-19T00:51:15.684Z,95581.44
2023-08-19T00:53:43.928Z,95588.16
2023-08-19T00:56:13.433Z,95581.44
2023-08-19T00:58:42.159Z,95576.09
2023-08-19T01:01:10.094Z,95579.97
2023-08-19T01:03:39.837Z,95578.97
2023-08-19T01:06:26.706Z,95580.69
2023-08-19T01:09:14.349Z,95589.38
2023-08-19T01:11:57.406Z,95592.50
2023-08-19T01:14:41.048Z,95593.44
2023-08-19T01:17:11.699Z,95585.03
2023-08-19T01:19:43.098Z,95576.81
2023-08-19T01:22:17.677Z,95577.16
2023-08-19T01:24:49.774Z,95590.00
2023-08-19T01:27:26.088Z,95588.00
2023-08-19T01:29:57.868Z,95586.97
2023-08-19T01:32:26.472Z,95588.91
2023-08-19T01:34:55.320Z,95588.47
2023-08-19T01:37:37.698Z,95592.38
2023-08-19T01:40:11.395Z,95591.84
2023-08-19T01:42:40.477Z,95579.69
2023-08-19T01:45:10.177Z,95586.66
2023-08-19T01:47:41.380Z,95583.97
2023-08-19T01:50:10.622Z,95591.22
2023-08-19T01:52:39.407Z,95584.13
2023-08-19T01:55:08.333Z,95584.34
2023-08-19T01:57:36.264Z,95584.81
2023-08-19T02:00:11.374Z,95591.41
2023-08-19T02:02:44.983Z,95588.31
2023-08-19T02:05:16.482Z,95584.34
2023-08-19T02:07:44.544Z,95578.16
2023-08-19T02:10:13.876Z,95579.69
2023-08-19T02:12:41.823Z,95582.31
2023-08-19T02:15:10.416Z,95579.69
2023-08-19T02:17:58.284Z,95581.47
2023-08-19T02:20:26.640Z,95587.13
2023-08-19T02:22:55.830Z,95585.81
2023-08-19T02:25:23.976Z,95584.66
2023-08-19T02:27:51.967Z,95579.00
2023-08-19T02:30:20.188Z,95584.03
2023-08-19T02:32:48.082Z,95576.25
2023-08-19T02:35:18.232Z,95578.53
2023-08-19T02:37:46.252Z,95569.84
2023-08-19T02:40:14.485Z,95579.31
2023-08-19T02:42:42.326Z,95580.75
2023-08-19T02:45:11.108Z,95579.00
2023-08-19T02:47:40.562Z,95580.22
2023-08-19T02:50:09.207Z,95583.44
2023-08-19T02:52:37.324Z,95592.38
2023-08-19T02:55:05.963Z,95587.06
2023-08-19T02:57:34.322Z,95591.75
2023-08-19T03:00:02.899Z,95595.00
2023-08-19T03:02:34.807Z,95588.38
2023-08-19T03:05:03.052Z,95589.69
2023-08-19T03:07:31.521Z,95597.06
2023-08-19T03:09:59.883Z,95603.44
2023-08-19T03:12:27.787Z,95594.03
2023-08-19T03:14:58.637Z,95589.38
2023-08-19T03:17:26.661Z,95595.53
2023-08-19T03:19:54.878Z,95595.41
2023-08-19T03:22:22.848Z,95595.78
2023-08-19T03:24:51.199Z,95594.84
2023-08-19T03:27:19.190Z,95588.78
2023-08-19T03:29:47.518Z,95593.81
2023-08-19T03:34:43.919Z,95587.97
2023-08-19T03:37:11.822Z,95580.84
2023-08-19T03:39:40.456Z,95585.56
2023-08-19T03:42:08.244Z,95583.91
2023-08-19T03:44:36.505Z,95595.03
2023-08-19T03:47:05.120Z,95592.56
2023-08-19T03:49:33.300Z,95585.38
2023-08-19T03:52:02.342Z,95578.94
2023-08-19T03:54:30.480Z,95581.81
2023-08-19T03:56:58.373Z,95585.63
2023-08-19T03:59:26.817Z,95577.16
2023-08-19T04:01:54.907Z,95578.59
2023-08-19T04:04:24.308Z,95582.22
2023-08-19T04:06:52.396Z,95584.19
2023-08-19T04:09:21.349Z,95586.59
2023-08-19T04:11:53.064Z,95599.56
2023-08-19T04:14:21.466Z,95590.34
2023-08-19T04:16:49.591Z,95583.47
2023-08-19T04:19:17.932Z,95577.06
2023-08-19T04:21:46.004Z,95582.81
2023-08-19T04:24:14.313Z,95581.19
2023-08-19T04:26:42.205Z,95589.56
2023-08-19T04:29:10.369Z,95579.22
2023-08-19T04:31:38.195Z,95582.94
2023-08-19T04:34:07.854Z,95572.28
2023-08-19T04:36:35.638Z,95575.63
2023-08-19T04:39:06.559Z,95569.81
2023-08-19T04:41:35.714Z,95572.03
2023-08-19T04:44:05.670Z,95555.47
2023-08-19T04:46:33.649Z,95549.56
2023-08-19T04:49:04.468Z,95556.34
2023-08-19T04:51:32.269Z,95554.16
2023-08-19T04:54:01.733Z,95548.06
2023-08-19T04:56:29.846Z,95546.28
2023-08-19T04:59:01.680Z,95543.34
2023-08-19T05:01:31.417Z,95548.69
2023-08-19T05:03:59.791Z,95540.13
2023-08-19T05:06:27.625Z,95541.66
2023-08-19T05:08:55.861Z,95539.34
2023-08-19T05:11:24.594Z,95531.81
2023-08-19T05:13:55.695Z,95533.97
2023-08-19T05:16:23.825Z,95539.59
2023-08-19T05:19:04.897Z,95546.53
2023-08-19T05:21:34.014Z,95546.22
2023-08-19T05:24:02.170Z,95545.00
2023-08-19T05:26:30.025Z,95552.22
2023-08-19T05:28:58.335Z,95553.53
2023-08-19T05:31:26.134Z,95547.50
2023-08-19T05:33:54.790Z,95538.75
2023-08-19T05:36:22.817Z,95549.41
2023-08-19T05:38:51.042Z,95550.59
2023-08-19T05:41:18.826Z,95546.34
2023-08-19T05:43:47.146Z,95546.22
2023-08-19T05:46:15.118Z,95555.50
2023-08-19T05:48:43.226Z,95545.59
2023-08-19T05:51:11.140Z,95544.69
2023-08-19T05:53:41.836Z,95547.00
2023-08-19T05:56:09.641Z,95545.13
2023-08-19T05:58:39.623Z,95542.69
2023-08-19T06:01:10.333Z,95539.91
2023-08-19T06:03:38.707Z,95530.34
2023-08-19T06:06:07.270Z,95534.06
2023-08-19T06:08:35.794Z,95532.97
2023-08-19T06:11:08.532Z,95528.31
2023-08-19T06:13:37.844Z,95524.88
2023-08-19T06:16:06.457Z,95524.66
2023-08-19T06:18:35.592Z,95529.22
2023-08-19T06:21:04.793Z,95531.38
2023-08-19T06:23:33.899Z,95527.44
2023-08-19T06:26:01.992Z,95523.28
2023-08-19T06:28:30.182Z,95515.31
2023-08-19T06:30:58.541Z,95521.25
2023-08-19T06:33:28.604Z,95521.84
2023-08-19T06:35:59.823Z,95522.47
2023-08-19T06:38:30.036Z,95520.22
2023-08-19T06:41:10.782Z,95518.19
2023-08-19T06:43:40.253Z,95518.03
2023-08-19T06:46:09.314Z,95517.88
2023-08-19T06:48:38.232Z,95524.34
2023-08-19T06:51:06.739Z,95524.00
2023-08-19T06:53:35.252Z,95517.97
2023-08-19T06:56:34.945Z,95514.97
2023-08-19T06:59:10.355Z,95504.75
2023-08-19T07:01:41.669Z,95512.53
2023-08-19T07:04:10.961Z,95506.34
2023-08-19T07:06:39.521Z,95504.63
2023-08-19T07:09:09.764Z,95508.63
2023-08-19T07:11:38.303Z,95509.59
2023-08-19T07:14:08.377Z,95506.00
2023-08-19T07:16:36.459Z,95506.03
2023-08-19T07:19:09.596Z,95507.53
2023-08-19T07:21:38.755Z,95504.72
2023-08-19T07:24:08.124Z,95502.69
2023-08-19T07:26:40.459Z,95485.25
2023-08-19T07:29:09.210Z,95491.69
2023-08-19T07:31:37.392Z,95490.19
2023-08-19T07:34:05.520Z,95483.34
2023-08-19T07:36:33.868Z,95483.53
2023-08-19T07:39:05.594Z,95481.47
2023-08-19T07:41:33.424Z,95473.09
2023-08-19T07:44:01.677Z,95467.78
2023-08-19T07:46:31.676Z,95463.41
2023-08-19T07:48:59.895Z,95454.88
2023-08-19T07:51:28.564Z,95460.19
2023-08-19T07:53:56.858Z,95457.53
2023-08-19T07:56:24.771Z,95452.97
2023-08-19T07:58:52.860Z,95455.59
2023-08-19T08:01:21.322Z,95454.06
2023-08-19T08:03:50.058Z,95450.03
2023-08-19T08:06:20.406Z,95450.59
2023-08-19T08:08:49.112Z,95446.41
2023-08-19T08:11:19.174Z,95447.19
2023-08-19T08:13:47.619Z,95444.47
2023-08-19T08:16:17.602Z,95439.34
2023-08-19T08:18:47.898Z,95442.19
2023-08-19T08:21:16.329Z,95438.53
2023-08-19T08:23:44.508Z,95434.16
2023-08-19T08:26:12.509Z,95429.63
2023-08-19T08:28:40.857Z,95421.22
2023-08-19T08:31:09.502Z,95427.44
2023-08-19T08:33:37.771Z,95416.59
2023-08-19T08:36:05.955Z,95422.44
2023-08-19T08:38:34.245Z,95415.38
2023-08-19T08:41:06.846Z,95412.66
2023-08-19T08:43:35.712Z,95423.28
2023-08-19T08:46:05.458Z,95416.06
2023-08-19T08:48:34.527Z,95407.31
2023-08-19T08:51:04.767Z,95407.31
2023-08-19T08:53:33.715Z,95403.84
2023-08-19T08:56:02.356Z,95398.47
2023-08-19T08:58:30.713Z,95405.53
2023-08-19T09:01:00.009Z,95397.72
2023-08-19T09:03:34.209Z,95399.66
2023-08-19T09:06:11.838Z,95398.72
2023-08-19T09:09:04.049Z,95402.25
2023-08-19T09:11:36.994Z,95390.84
2023-08-19T09:14:24.301Z,95394.63
2023-08-19T09:16:52.411Z,95393.66
2023-08-19T09:19:20.641Z,95392.09
2023-08-19T09:21:48.619Z,95393.19
2023-08-19T09:24:19.299Z,95389.75
2023-08-19T09:26:47.138Z,95380.41
2023-08-19T09:29:15.952Z,95381.81
2023-08-19T09:31:44.204Z,95371.72
2023-08-19T09:34:16.307Z,95374.66
2023-08-19T09:36:44.128Z,95369.66
2023-08-19T09:39:12.256Z,95377.09
2023-08-19T09:41:40.473Z,95367.13
2023-08-19T09:44:16.092Z,95353.94
2023-08-19T09:46:45.202Z,95358.50
2023-08-19T09:49:23.383Z,95358.00
2023-08-19T09:51:57.808Z,95359.25
2023-08-19T09:54:26.718Z,95350.53
2023-08-19T09:56:56.664Z,95353.53
2023-08-19T09:59:26.440Z,95345.56
2023-08-19T10:01:54.861Z,95339.59
2023-08-19T10:04:23.365Z,95345.81
2023-08-19T10:06:57.790Z,95334.53
2023-08-19T10:09:28.062Z,95338.50
2023-08-19T10:11:57.210Z,95337.81
2023-08-19T10:14:32.628Z,95332.09
2023-08-19T10:17:09.710Z,95329.78
2023-08-19T10:19:51.993Z,95325.75
2023-08-19T10:22:21.078Z,95311.13
2023-08-19T10:24:52.086Z,95308.41
2023-08-19T10:27:20.647Z,95303.31
2023-08-19T10:29:58.200Z,95298.66
2023-08-19T10:32:28.098Z,95301.00
2023-08-19T10:35:06.294Z,95309.41
2023-08-19T10:37:34.780Z,95303.38
2023-08-19T10:40:13.588Z,95290.44
2023-08-19T10:42:42.198Z,95294.22
2023-08-19T10:45:18.611Z,95285.63
2023-08-19T10:47:46.598Z,95282.34
2023-08-19T10:50:14.956Z,95276.94
2023-08-19T10:53:01.975Z,95281.91
2023-08-19T10:55:56.939Z,95273.47
2023-08-19T10:58:27.196Z,95272.91
2023-08-19T11:00:55.685Z,95273.72
2023-08-19T11:03:26.635Z,95271.34
2023-08-19T11:05:54.967Z,95265.00
2023-08-19T11:08:23.904Z,95264.41
2023-08-19T11:10:52.231Z,95256.59
2023-08-19T11:13:20.354Z,95255.13
2023-08-19T11:15:51.102Z,95252.28
2023-08-19T11:18:22.073Z,95255.88
2023-08-19T11:20:50.582Z,95247.91
2023-08-19T11:23:44.918Z,95238.47
2023-08-19T11:26:14.095Z,95245.47
2023-08-19T11:28:42.342Z,95243.19
2023-08-19T11:31:16.519Z,95236.88
2023-08-19T11:33:44.777Z,95242.91
2023-08-19T11:36:12.888Z,95231.31
2023-08-19T11:38:40.796Z,95240.03
2023-08-19T11:41:09.207Z,95241.53
2023-08-19T11:43:46.427Z,95233.28
2023-08-19T11:46:14.849Z,95240.94
2023-08-19T11:48:44.402Z,95235.41
2023-08-19T11:51:14.089Z,95239.78
2023-08-19T11:53:43.043Z,95232.97
2023-08-19T11:56:11.322Z,95235.22
2023-08-19T11:58:39.966Z,95229.38
2023-08-19T12:01:08.837Z,95228.63
2023-08-19T12:03:37.094Z,95229.53
2023-08-19T12:06:05.508Z,95225.81
2023-08-19T12:08:34.505Z,95220.94
2023-08-19T12:11:02.767Z,95229.53
2023-08-19T12:13:32.082Z,95229.38
2023-08-19T12:16:03.156Z,95218.06
2023-08-19T12:18:35.619Z,95212.81
2023-08-19T12:21:05.075Z,95203.97
2023-08-19T12:23:33.470Z,95202.28
2023-08-19T12:26:02.151Z,95218.41
2023-08-19T12:28:30.373Z,95214.19
2023-08-19T12:30:58.976Z,95220.81
2023-08-19T12:33:51.740Z,95219.91
2023-08-19T12:36:20.282Z,95220.69
2023-08-19T12:38:48.291Z,95221.75
2023-08-19T12:41:16.499Z,95223.28
2023-08-19T12:43:44.661Z,95229.75
2023-08-19T12:46:12.911Z,95228.25
2023-08-19T12:48:40.882Z,95244.41
2023-08-19T12:51:09.231Z,95244.53
2023-08-19T12:53:37.221Z,95239.59
2023-08-19T12:56:05.509Z,95246.03
2023-08-19T12:58:34.330Z,95247.84
2023-08-19T13:01:02.582Z,95251.72
2023-08-19T13:03:30.552Z,95253.25
2023-08-19T13:05:58.904Z,95258.03
2023-08-19T13:08:26.905Z,95258.66
2023-08-19T13:10:55.121Z,95253.81
2023-08-19T13:13:23.082Z,95258.22
2023-08-19T13:15:51.328Z,95264.38
2023-08-19T13:18:20.488Z,95268.88
2023-08-19T13:20:48.914Z,95264.78
2023-08-19T13:23:16.700Z,95266.72
2023-08-19T13:25:44.904Z,95274.69
2023-08-19T13:28:13.668Z,95273.91
2023-08-19T13:30:41.864Z,95272.69
2023-08-19T13:33:09.878Z,95275.81
2023-08-19T13:35:38.655Z,95286.75
2023-08-19T13:38:06.500Z,95281.47
2023-08-19T13:40:34.713Z,95283.25
2023-08-19T13:43:02.728Z,95276.03
2023-08-19T13:45:31.058Z,95295.28
2023-08-19T13:48:12.385Z,95291.34
2023-08-19T13:50:44.814Z,95306.56
2023-08-19T13:53:12.695Z,95311.69
2023-08-19T13:55:43.517Z,95324.91
2023-08-19T13:58:12.052Z,95316.31
2023-08-19T14:00:40.632Z,95329.44
2023-08-19T14:03:08.703Z,95317.41
2023-08-19T14:05:39.595Z,95318.75
2023-08-19T14:08:07.839Z,95316.47
2023-08-19T14:10:36.036Z,95314.81
2023-08-19T14:13:04.052Z,95308.75
2023-08-19T14:15:32.474Z,95329.56
2023-08-19T14:18:00.394Z,95326.69
2023-08-19T14:20:29.516Z,95333.59
2023-08-19T14:22:57.531Z,95335.84
2023-08-19T14:25:28.443Z,95348.81
2023-08-19T14:27:57.197Z,95339.56
2023-08-19T14:30:25.591Z,95343.31
2023-08-19T14:32:53.510Z,95342.72
2023-08-19T14:35:22.343Z,95343.22
2023-08-19T14:37:50.308Z,95350.44
2023-08-19T14:40:20.845Z,95355.56
2023-08-19T14:42:48.866Z,95364.84
2023-08-19T14:45:20.322Z,95362.44
2023-08-19T14:47:48.343Z,95377.03
2023-08-19T14:50:16.560Z,95371.81
2023-08-19T14:52:44.353Z,95382.53
2023-08-19T14:55:12.896Z,95382.06
2023-08-19T14:57:40.845Z,95388.97
2023-08-19T15:00:13.333Z,95411.41
2023-08-19T15:02:52.727Z,95423.03
2023-08-19T15:05:21.355Z,95426.13
2023-08-19T15:07:49.285Z,95427.25
2023-08-19T15:10:17.475Z,95425.97
2023-08-19T15:12:48.073Z,95427.69
2023-08-19T15:15:19.237Z,95423.72
2023-08-19T15:17:47.611Z,95429.81
2023-08-19T15:20:16.767Z,95431.38
2023-08-19T15:22:45.174Z,95430.63
2023-08-19T15:25:14.257Z,95431.03
2023-08-19T15:27:44.549Z,95440.31
2023-08-19T15:30:15.352Z,95441.09
2023-08-19T15:32:47.956Z,95445.84
2023-08-19T15:35:18.204Z,95450.03
2023-08-19T15:37:46.398Z,95451.91
2023-08-19T15:40:14.610Z,95456.09
2023-08-19T15:42:42.465Z,95456.66
2023-08-19T15:45:11.150Z,95457.81
2023-08-19T15:47:39.046Z,95471.09
2023-08-19T15:50:07.608Z,95475.69
2023-08-19T15:52:35.533Z,95469.03
2023-08-19T15:55:03.976Z,95474.19
2023-08-19T15:57:33.421Z,95487.47
2023-08-19T16:00:02.938Z,95493.19
2023-08-19T16:02:33.924Z,95492.44
2023-08-19T16:05:02.225Z,95486.38
2023-08-19T16:07:37.209Z,95486.75
2023-08-19T16:10:07.998Z,95478.78
2023-08-19T16:12:36.904Z,95479.53
2023-08-19T16:15:05.808Z,95490.56
2023-08-19T16:17:34.090Z,95500.06
2023-08-19T16:20:02.515Z,95498.72
2023-08-19T16:22:30.377Z,95501.97
2023-08-19T16:24:59.142Z,95501.22
2023-08-19T16:27:28.193Z,95507.28
2023-08-19T16:29:59.443Z,95508.97
2023-08-19T16:32:28.963Z,95513.13
2023-08-19T16:34:58.329Z,95520.38
2023-08-19T16:37:26.083Z,95522.81
2023-08-19T16:39:54.336Z,95524.34
2023-08-19T16:42:24.087Z,95529.84
2023-08-19T16:44:54.735Z,95540.25
2023-08-19T16:47:24.004Z,95534.56
2023-08-19T16:49:52.330Z,95554.28
2023-08-19T16:52:21.225Z,95551.63
2023-08-19T16:54:49.384Z,95560.31
2023-08-19T16:57:17.513Z,95559.56
2023-08-19T16:59:45.638Z,95563.50
2023-08-19T17:02:13.666Z,95555.72
2023-08-19T17:04:49.056Z,95555.13
2023-08-19T17:07:21.404Z,95573.13
2023-08-19T17:09:49.908Z,95576.88
2023-08-19T17:12:17.814Z,95585.22
2023-08-19T17:14:46.203Z,95584.09
2023-08-19T17:17:13.997Z,95582.94
2023-08-19T17:19:42.380Z,95583.13
2023-08-19T17:22:13.374Z,95582.31
2023-08-19T17:24:42.002Z,95583.81
2023-08-19T17:27:10.159Z,95579.03
2023-08-19T17:29:38.305Z,95586.19
2023-08-19T17:32:07.073Z,95596.44
2023-08-19T17:34:38.551Z,95602.69
2023-08-19T17:37:06.609Z,95609.16
2023-08-19T17:39:35.873Z,95607.19
2023-08-19T17:42:04.394Z,95622.31
2023-08-19T17:44:35.323Z,95630.06
2023-08-19T17:47:03.717Z,95630.84
2023-08-19T17:49:32.929Z,95641.59
2023-08-19T17:52:00.848Z,95646.50
2023-08-19T17:54:30.225Z,95643.59
2023-08-19T17:56:58.141Z,95651.38
2023-08-19T17:59:30.320Z,95656.56
2023-08-19T18:01:59.218Z,95658.69
2023-08-19T18:04:27.418Z,95648.97
2023-08-19T18:06:55.629Z,95651.81
2023-08-19T18:09:24.407Z,95643.09
2023-08-19T18:11:52.836Z,95641.75
2023-08-19T18:14:24.532Z,95647.59
2023-08-19T18:16:53.999Z,95652.03
2023-08-19T18:19:40.339Z,95652.94
2023-08-19T18:22:08.363Z,95651.19
2023-08-19T18:24:36.771Z,95640.41
2023-08-19T18:27:04.766Z,95633.94
2023-08-19T18:29:33.312Z,95637.13
2023-08-19T18:32:01.295Z,95628.75
2023-08-19T18:34:29.610Z,95629.88
2023-08-19T18:36:58.130Z,95634.59
2023-08-19T18:39:26.255Z,95622.78
2023-08-19T18:41:54.578Z,95628.59
2023-08-19T18:44:23.666Z,95626.84
2023-08-19T18:46:52.194Z,95623.13
2023-08-19T18:49:20.191Z,95616.69
2023-08-19T18:51:48.500Z,95611.75
2023-08-19T18:54:21.739Z,95609.16
2023-08-19T18:56:50.148Z,95615.84
2023-08-19T18:59:18.016Z,95612.63
2023-08-19T19:01:46.171Z,95618.84
2023-08-19T19:04:14.252Z,95605.97
2023-08-19T19:06:42.427Z,95620.78
2023-08-19T19:09:10.246Z,95614.75
2023-08-19T19:11:38.637Z,95615.50
2023-08-19T19:14:07.943Z,95611.34
2023-08-19T19:16:36.317Z,95616.41
2023-08-19T19:19:04.524Z,95626.22
2023-08-19T19:21:34.483Z,95617.31
2023-08-19T19:24:02.703Z,95618.00
2023-08-19T19:26:33.804Z,95625.41
2023-08-19T19:29:05.856Z,95633.94
2023-08-19T19:31:35.064Z,95634.34
2023-08-19T19:34:03.144Z,95632.75
2023-08-19T19:36:32.700Z,95631.56
2023-08-19T19:39:00.443Z,95619.09
2023-08-19T19:41:28.606Z,95623.81
2023-08-19T19:43:56.486Z,95622.06
2023-08-19T19:46:24.798Z,95620.00
2023-08-19T19:48:53.558Z,95622.16
2023-08-19T19:51:21.815Z,95631.97
2023-08-19T19:53:50.514Z,95635.94
2023-08-19T19:56:18.794Z,95634.41
2023-08-19T19:58:46.962Z,95637.03
2023-08-19T20:01:15.478Z,95636.06
2023-08-19T20:03:44.185Z,95634.34
2023-08-19T20:06:12.514Z,95635.09
2023-08-19T20:08:40.487Z,95626.38
2023-08-19T20:11:08.770Z,95618.19
2023-08-19T20:13:37.320Z,95619.72
2023-08-19T20:16:05.710Z,95633.63
2023-08-19T20:18:33.724Z,95638.53
2023-08-19T20:21:02.038Z,95639.69
2023-08-19T20:23:30.006Z,95635.00
2023-08-19T20:25:58.411Z,95637.00
2023-08-19T20:28:26.425Z,95635.25
2023-08-19T20:30:54.961Z,95639.94
2023-08-19T20:33:23.027Z,95630.03
2023-08-19T20:35:54.543Z,95632.44
2023-08-19T20:38:22.764Z,95627.31
2023-08-19T20:40:54.099Z,95635.81
2023-08-19T20:43:22.856Z,95634.09
2023-08-19T20:45:55.729Z,95634.78
2023-08-19T20:48:23.806Z,95640.63
2023-08-19T20:50:52.048Z,95637.03
2023-08-19T20:53:20.576Z,95640.00
2023-08-19T20:55:48.708Z,95630.19
2023-08-19T20:58:16.610Z,95628.56
2023-08-19T21:00:45.415Z,95635.34
2023-08-19T21:03:13.458Z,95620.84
2023-08-19T21:05:42.491Z,95621.16
2023-08-19T21:08:10.256Z,95614.41
2023-08-19T21:10:38.736Z,95613.22
2023-08-19T21:13:06.572Z,95627.63
2023-08-19T21:15:34.833Z,95624.78
2023-08-19T21:18:02.958Z,95624.13
2023-08-19T21:20:31.122Z,95623.34
2023-08-19T21:22:58.912Z,95619.97
2023-08-19T21:25:27.275Z,95617.63
2023-08-19T21:27:55.394Z,95623.69
2023-08-19T21:30:23.741Z,95620.44
2023-08-19T21:32:51.608Z,95630.22
2023-08-19T21:35:20.009Z,95634.19
2023-08-19T21:37:47.860Z,95634.72
2023-08-19T21:40:16.081Z,95629.59
2023-08-19T21:42:44.231Z,95627.00
2023-08-19T21:45:13.468Z,95626.31
2023-08-19T21:47:41.424Z,95632.22
2023-08-19T21:50:10.494Z,95629.13
2023-08-19T21:52:38.285Z,95636.41
2023-08-19T21:55:07.312Z,95636.22
2023-08-19T21:57:35.366Z,95633.91
2023-08-19T22:00:04.797Z,95641.09
2023-08-19T22:02:34.319Z,95634.38
2023-08-19T22:05:03.280Z,95630.22
2023-08-19T22:07:31.327Z,95636.22
2023-08-19T22:09:59.517Z,95641.44
2023-08-19T22:12:27.317Z,95634.56
2023-08-19T22:14:55.604Z,95630.66
2023-08-19T22:17:23.452Z,95627.84
2023-08-19T22:19:52.335Z,95642.22
2023-08-19T22:22:20.348Z,95628.25
2023-08-19T22:24:48.525Z,95637.41
2023-08-19T22:27:17.722Z,95634.47
2023-08-19T22:29:45.853Z,95637.94
2023-08-19T22:32:13.779Z,95635.00
2023-08-19T22:34:42.007Z,95627.16
2023-08-19T22:37:09.804Z,95629.56
2023-08-19T22:39:37.933Z,95632.81
2023-08-19T22:42:06.367Z,95638.28
2023-08-19T22:44:35.473Z,95646.88
2023-08-19T22:47:04.665Z,95653.41
2023-08-19T22:49:32.875Z,95664.88
2023-08-19T22:52:01.595Z,95661.13
2023-08-19T22:54:30.082Z,95663.44
2023-08-19T22:56:57.884Z,95668.00
2023-08-19T22:59:27.090Z,95665.72
2023-08-19T23:01:55.093Z,95665.72
2023-08-19T23:04:23.490Z,95664.31
2023-08-19T23:06:51.284Z,95676.09
2023-08-19T23:09:20.837Z,95680.63
2023-08-19T23:11:49.119Z,95681.63
2023-08-19T23:14:17.389Z,95685.78
2023-08-19T23:16:45.281Z,95681.63
2023-08-19T23:19:13.467Z,95689.69
2023-08-19T23:21:46.615Z,95683.47
2023-08-19T23:24:15.886Z,95686.44
2023-08-19T23:26:43.679Z,95688.81
2023-08-19T23:29:12.074Z,95682.94
2023-08-19T23:31:40.068Z,95688.81
2023-08-19T23:34:08.504Z,95695.25
2023-08-19T23:36:36.329Z,95687.63
2023-08-19T23:39:08.684Z,95692.75
2023-08-19T23:41:37.559Z,95694.25
2023-08-19T23:44:06.050Z,95697.97
2023-08-19T23:46:33.919Z,95694.13
2023-08-19T23:49:02.549Z,95701.31
2023-08-19T23:51:33.052Z,95705.97
2023-08-19T23:54:01.568Z,95701.31
2023-08-19T23:56:29.676Z,95707.91
2023-08-19T23:58:58.120Z,95708.13
